Time;durP1;ratioP1;P1;durP2;ratioP2;P2;SDS_P1;SDS_P2;PMS_P1;PMS_P2;Temp;Humidity;BMP_temperature;BMP_pressure;BME280_temperature;BME280_humidity;BME280_pressure;Samples;Min_cycle;Max_cycle;Signal;HPM_P1;HPM_P2
2023/12/05 00:00:00;;;;;;;6.50;4.73;;;3.10;87.10;;;4.82;61.11;96381.75;5030511;28;20497;-55
2023/12/05 00:02:27;;;;;;;6.13;4.10;;;3.10;87.30;;;4.78;61.17;96390.97;5030567;28;20045;-54
2023/12/05 00:04:56;;;;;;;5.40;3.50;;;3.00;87.80;;;4.80;61.65;96375.81;5030131;28;20045;-53
2023/12/05 00:07:25;;;;;;;5.77;3.97;;;3.00;87.80;;;4.79;61.70;96372.34;5030607;28;20041;-53
2023/12/05 00:09:53;;;;;;;6.70;4.73;;;3.00;88.50;;;4.79;61.77;96382.91;5030532;28;20048;-52
2023/12/05 00:12:21;;;;;;;6.03;3.17;;;3.00;88.60;;;4.82;61.08;96373.84;5030206;28;20042;-52
2023/12/05 00:14:48;;;;;;;7.00;3.97;;;3.00;88.80;;;4.82;61.13;96372.03;5030342;28;20048;-56
2023/12/05 00:17:16;;;;;;;5.80;3.13;;;3.10;89.10;;;4.86;61.58;96362.81;5030531;28;20045;-53
2023/12/05 00:19:44;;;;;;;5.53;3.03;;;3.10;88.90;;;4.87;61.56;96361.84;5030606;28;20719;-54
2023/12/05 00:22:11;;;;;;;4.87;3.27;;;3.20;89.20;;;4.89;61.57;96356.41;5029169;28;20045;-51
2023/12/05 00:24:39;;;;;;;5.73;3.20;;;3.10;89.30;;;4.91;61.56;96359.72;5030477;28;20049;-53
2023/12/05 00:27:06;;;;;;;5.90;3.53;;;3.20;89.60;;;4.91;61.45;96357.91;5034040;28;20394;-52
2023/12/05 00:29:37;;;;;;;4.33;2.70;;;3.20;89.90;;;4.91;62.17;96362.34;5034204;28;20501;-53
2023/12/05 00:32:05;;;;;;;5.37;3.17;;;3.20;90.10;;;4.91;61.73;96365.00;5033867;28;20041;-52
2023/12/05 00:34:33;;;;;;;5.27;3.03;;;3.20;90.10;;;4.95;62.35;96373.44;5034179;28;20049;-50
2023/12/05 00:37:01;;;;;;;5.00;3.23;;;3.20;90.50;;;4.97;62.21;96363.53;5033869;28;20493;-55
2023/12/05 00:39:29;;;;;;;5.33;2.90;;;3.20;90.50;;;4.96;62.29;96369.78;5033949;28;20041;-54
2023/12/05 00:41:56;;;;;;;6.03;3.17;;;3.30;90.60;;;4.92;62.01;96364.84;5033198;28;20049;-52
2023/12/05 00:44:24;;;;;;;3.27;2.63;;;3.20;90.80;;;4.92;62.04;96362.22;5033632;28;20501;-53
2023/12/05 00:46:52;;;;;;;6.10;3.43;;;3.20;91.20;;;4.96;62.47;96365.31;5033483;28;20052;-50
2023/12/05 00:49:19;;;;;;;5.63;3.50;;;3.30;91.20;;;4.98;62.40;96362.53;5033824;28;20048;-54
2023/12/05 00:51:47;;;;;;;5.53;4.00;;;3.30;91.10;;;4.96;62.83;96361.88;5033627;28;20044;-53
2023/12/05 00:54:15;;;;;;;5.00;3.17;;;3.30;91.00;;;4.95;62.54;96363.69;5032563;28;20041;-50
2023/12/05 00:56:42;;;;;;;5.53;3.70;;;3.30;90.90;;;4.92;62.38;96367.47;5033582;28;20046;-52
2023/12/05 00:59:10;;;;;;;5.40;3.03;;;3.20;91.30;;;4.91;62.53;96362.34;5033681;28;20072;-52
2023/12/05 01:01:37;;;;;;;5.47;3.87;;;3.20;92.00;;;4.93;62.53;96358.56;5032433;28;20044;-52
2023/12/05 01:04:05;;;;;;;4.53;3.10;;;3.20;91.80;;;4.96;62.58;96373.25;5033404;28;20041;-53
2023/12/05 01:06:33;;;;;;;4.87;2.97;;;3.20;91.30;;;4.97;62.83;96367.00;5032255;28;20420;-55
2023/12/05 01:09:00;;;;;;;5.37;3.23;;;3.20;91.60;;;5.01;62.96;96370.16;5033546;28;20045;-53
2023/12/05 01:11:28;;;;;;;5.27;3.50;;;3.20;91.60;;;5.04;62.84;96375.94;5032913;28;20038;-54
2023/12/05 01:13:56;;;;;;;5.40;3.00;;;3.30;91.60;;;5.03;62.77;96373.47;5033520;28;20041;-54
2023/12/05 01:16:23;;;;;;;5.57;2.93;;;3.30;91.20;;;5.01;61.99;96373.59;5033064;28;20216;-50
2023/12/05 01:18:51;;;;;;;5.87;3.93;;;3.30;91.70;;;5.00;62.80;96374.59;5033867;28;20050;-51
2023/12/05 01:21:19;;;;;;;4.73;2.87;;;3.20;92.10;;;4.99;62.61;96369.47;5033269;28;20049;-53
2023/12/05 01:23:46;;;;;;;5.10;3.30;;;3.30;92.00;;;4.97;62.94;96368.81;5033136;28;20060;-52
2023/12/05 01:26:14;;;;;;;5.30;3.03;;;3.20;92.60;;;4.97;63.04;96377.53;5032873;28;20049;-51
2023/12/05 01:28:42;;;;;;;5.57;3.37;;;3.20;93.10;;;5.00;63.22;96385.16;5033336;28;20046;-52
2023/12/05 01:31:09;;;;;;;6.40;3.80;;;3.20;92.50;;;5.00;62.87;96385.16;5033324;28;20060;-53
2023/12/05 01:33:37;;;;;;;5.60;3.70;;;3.20;93.10;;;4.91;63.27;96386.09;5033208;28;20038;-52
2023/12/05 01:36:10;;;;;;;4.23;3.10;;;3.20;93.60;;;4.92;63.00;96393.84;5032669;28;20037;-52
2023/12/05 01:38:39;;;;;;;6.13;4.55;;;3.20;94.10;;;4.92;63.42;96390.38;5025579;28;20056;-53
2023/12/05 01:41:07;;;;;;;4.90;3.00;;;3.20;94.20;;;4.92;63.45;96393.00;5032888;28;20041;-52
2023/12/05 01:43:35;;;;;;;5.03;3.37;;;3.10;94.50;;;4.92;63.08;96388.56;5022532;28;20048;-53
2023/12/05 01:46:04;;;;;;;4.43;3.03;;;3.10;94.80;;;4.95;62.94;96387.44;5032624;28;20413;-51
2023/12/05 01:48:33;;;;;;;5.07;3.53;;;3.20;94.70;;;4.97;63.17;96384.66;5031653;28;20045;-54
2023/12/05 01:51:04;;;;;;;7.30;3.90;;;3.20;94.60;;;4.99;63.03;96380.03;5031424;28;20053;-54
2023/12/05 01:53:33;;;;;;;6.93;3.70;;;3.20;94.20;;;5.02;63.60;96380.56;5015261;28;20398;-53
2023/12/05 01:56:03;;;;;;;5.70;3.60;;;3.30;94.20;;;5.02;62.69;96383.19;5031364;28;20037;-52
2023/12/05 01:58:33;;;;;;;6.10;3.17;;;3.30;94.10;;;5.05;62.83;96387.31;5032749;28;20056;-54
2023/12/05 02:01:03;;;;;;;5.27;3.60;;;3.30;93.80;;;5.03;63.00;96376.91;5032458;28;20045;-52
2023/12/05 02:03:31;;;;;;;5.47;3.97;;;3.20;94.10;;;5.02;63.30;96374.44;5032600;28;20392;-53
2023/12/05 02:06:00;;;;;;;6.07;4.10;;;3.30;94.20;;;4.98;62.88;96375.72;5030944;28;20069;-53
2023/12/05 02:08:29;;;;;;;7.93;5.10;;;3.30;93.50;;;4.92;63.12;96372.75;5031272;28;20061;-54
2023/12/05 02:10:56;;;;;;;5.97;3.73;;;3.20;93.70;;;4.90;63.39;96381.78;5031139;28;20045;-52
2023/12/05 02:13:24;;;;;;;8.50;4.87;;;3.10;93.80;;;4.89;62.73;96378.34;5031916;28;20042;-52
2023/12/05 02:16:15;;;;;;;6.63;4.87;;;3.10;93.70;;;4.85;63.31;96377.00;5032071;28;20057;-51
2023/12/05 02:18:56;;;;;;;5.33;4.07;;;3.10;94.20;;;4.82;63.48;96373.84;5031131;28;20041;-51
2023/12/05 02:21:31;;;;;;;9.30;5.23;;;3.10;94.30;;;4.79;63.04;96368.88;5031086;28;20417;-53
2023/12/05 02:24:25;;;;;;;7.67;4.70;;;3.00;93.80;;;4.75;62.96;96371.00;5030959;28;20037;-52
2023/12/05 02:27:02;;;;;;;7.18;4.78;;;3.00;94.10;;;4.73;63.20;96367.72;5025871;28;20496;-53
2023/12/05 02:29:29;;;;;;;7.57;5.03;;;2.90;95.10;;;4.67;63.75;96369.16;5032109;28;20412;-52
2023/12/05 02:31:57;;;;;;;9.40;5.23;;;2.90;95.20;;;4.66;63.02;96377.22;5031861;28;20493;-52
2023/12/05 02:34:25;;;;;;;7.67;4.60;;;2.80;95.30;;;4.66;63.77;96387.75;5031829;28;20057;-53
2023/12/05 02:37:14;;;;;;;8.00;4.90;;;2.80;94.70;;;4.63;63.77;96385.41;5031383;28;20045;-54
2023/12/05 02:39:57;;;;;;;6.47;4.60;;;2.80;95.20;;;4.53;64.01;96394.25;5030582;28;20048;-51
2023/12/05 02:42:27;;;;;;;7.57;4.63;;;2.80;96.20;;;4.48;64.28;96393.91;5031958;28;20053;-53
2023/12/05 02:44:56;;;;;;;10.77;5.37;;;2.70;96.80;;;4.40;64.70;96388.56;5030341;28;20052;-54
2023/12/05 02:47:26;;;;;;;7.87;5.43;;;2.70;97.50;;;4.43;64.16;96393.53;5029295;28;20072;-51
2023/12/05 02:49:54;;;;;;;8.07;5.67;;;2.70;97.70;;;4.41;64.56;96392.84;5031292;28;20281;-51
2023/12/05 02:52:22;;;;;;;8.83;5.10;;;2.70;97.30;;;4.40;64.24;96395.63;5030202;28;20049;-53
2023/12/05 02:54:50;;;;;;;9.30;5.47;;;2.70;97.40;;;4.42;64.22;96401.56;5031375;28;20112;-53
2023/12/05 02:57:17;;;;;;;10.20;5.70;;;2.70;97.00;;;4.42;63.86;96398.94;5030558;28;20038;-54
2023/12/05 02:59:45;;;;;;;9.07;5.80;;;2.70;97.30;;;4.38;64.99;96416.03;5029904;28;20045;-51
2023/12/05 03:02:12;;;;;;;9.03;5.73;;;2.60;97.60;;;4.36;64.21;96407.47;5031289;28;20053;-54
2023/12/05 03:04:42;;;;;;;8.83;5.10;;;2.70;99.50;;;4.39;64.82;96410.63;5024108;28;20541;-53
2023/12/05 03:07:10;;;;;;;8.37;5.27;;;2.70;98.30;;;4.42;64.77;96415.59;5030337;28;20050;-50
2023/12/05 03:09:37;;;;;;;8.43;4.70;;;2.80;98.00;;;4.46;65.19;96424.84;5031238;28;20528;-51
2023/12/05 03:12:05;;;;;;;8.97;6.20;;;2.80;98.30;;;4.57;65.21;96425.56;5031448;28;20052;-53
2023/12/05 03:14:33;;;;;;;7.83;5.13;;;2.90;97.40;;;4.61;65.30;96429.56;5031200;28;20057;-56
2023/12/05 03:17:01;;;;;;;9.03;5.10;;;3.00;96.70;;;4.67;65.30;96432.44;5030925;28;20041;-54
2023/12/05 03:19:29;;;;;;;8.47;5.90;;;3.00;96.80;;;4.70;64.51;96424.19;5030718;28;20050;-52
2023/12/05 03:21:57;;;;;;;7.63;4.90;;;3.00;95.90;;;4.74;64.82;96428.16;5031329;28;20046;-51
2023/12/05 03:24:25;;;;;;;8.57;5.27;;;2.90;95.70;;;4.66;64.70;96425.47;5031091;28;20204;-51
2023/12/05 03:26:54;;;;;;;8.77;5.17;;;2.90;96.40;;;4.60;64.52;96425.28;5030846;28;20058;-52
2023/12/05 03:29:22;;;;;;;10.77;5.40;;;2.80;96.90;;;4.61;64.88;96426.94;5031029;28;20053;-50
2023/12/05 03:31:49;;;;;;;11.40;5.80;;;2.80;97.50;;;4.59;64.73;96434.16;5031029;28;20045;-51
2023/12/05 03:34:17;;;;;;;6.07;4.30;;;2.80;97.50;;;4.62;64.20;96431.22;5030620;28;20048;-51
2023/12/05 03:36:45;;;;;;;8.60;5.03;;;2.80;97.60;;;4.66;64.40;96425.47;5022827;28;20045;-53
2023/12/05 03:39:12;;;;;;;9.13;4.83;;;2.80;97.70;;;4.68;64.28;96428.78;5031086;28;20055;-53
2023/12/05 03:41:43;;;;;;;7.50;4.37;;;2.80;97.70;;;4.69;65.04;96429.59;5030828;28;20417;-52
2023/12/05 03:44:10;;;;;;;7.97;5.00;;;2.90;98.00;;;4.70;64.11;96421.56;5030639;28;20061;-52
2023/12/05 03:46:38;;;;;;;8.97;4.50;;;2.90;98.00;;;4.68;64.12;96428.78;5029571;28;20053;-54
2023/12/05 03:49:05;;;;;;;7.27;4.03;;;2.90;98.80;;;4.70;64.74;96420.72;5030901;28;20520;-52
2023/12/05 03:51:33;;;;;;;6.93;4.23;;;2.90;98.00;;;4.69;64.23;96416.44;5029458;28;20056;-54
2023/12/05 03:54:02;;;;;;;5.87;4.07;;;2.90;98.30;;;4.68;64.82;96415.59;5030766;28;20416;-51
2023/12/05 03:56:30;;;;;;;6.47;4.37;;;2.90;98.60;;;4.71;64.76;96417.09;5029006;28;20520;-54
2023/12/05 03:58:57;;;;;;;5.17;3.70;;;2.90;98.70;;;4.74;64.35;96414.16;5031241;28;20049;-53
2023/12/05 04:01:26;;;;;;;4.53;3.07;;;3.00;98.80;;;4.77;64.75;96424.41;5034793;28;20089;-52
2023/12/05 04:03:53;;;;;;;3.80;2.73;;;3.00;98.80;;;4.82;64.89;96418.66;5034801;28;20056;-53
2023/12/05 04:06:23;;;;;;;6.13;3.20;;;3.10;99.10;;;4.83;64.36;96423.78;5034628;28;20394;-55
2023/12/05 04:08:51;;;;;;;6.07;3.40;;;3.10;99.20;;;4.90;64.85;96429.25;5034814;28;20041;-53
2023/12/05 04:11:32;;;;;;;4.87;2.97;;;3.20;99.30;;;4.96;65.21;96436.53;5034667;28;20045;-55
2023/12/05 04:14:00;;;;;;;5.37;2.67;;;3.30;99.40;;;5.02;65.49;96432.47;5028260;28;20049;-55
2023/12/05 04:16:28;;;;;;;6.67;2.93;;;3.50;99.40;;;5.09;65.28;96430.84;5034235;28;20417;-52
2023/12/05 04:18:56;;;;;;;4.63;2.87;;;3.50;98.90;;;5.15;65.11;96434.69;5034628;28;20044;-52
2023/12/05 04:21:26;;;;;;;7.30;3.23;;;3.50;98.70;;;5.19;65.47;96447.41;5033010;28;20056;-53
2023/12/05 04:23:54;;;;;;;6.77;3.27;;;3.60;98.50;;;5.26;65.19;96450.25;5034375;28;20057;-53
2023/12/05 04:26:21;;;;;;;7.33;3.70;;;3.60;97.90;;;5.28;64.91;96446.47;5034291;28;20501;-52
2023/12/05 04:28:49;;;;;;;5.30;2.70;;;3.70;98.10;;;5.31;65.13;96448.81;5025076;28;20444;-55
2023/12/05 04:31:17;;;;;;;5.60;3.30;;;3.70;97.70;;;5.34;65.53;96431.81;5034267;28;20053;-54
2023/12/05 04:33:44;;;;;;;6.93;3.07;;;3.70;97.10;;;5.36;65.40;96439.56;5034161;28;20049;-53
2023/12/05 04:36:12;;;;;;;6.43;2.57;;;3.70;97.10;;;5.35;64.78;96440.53;5033975;28;20045;-55
2023/12/05 04:38:40;;;;;;;4.33;2.70;;;3.60;97.40;;;5.36;64.95;96443.03;5033947;28;20045;-52
2023/12/05 04:41:07;;;;;;;5.70;2.73;;;3.60;97.60;;;5.36;64.60;96440.41;5034107;28;20042;-53
2023/12/05 04:43:36;;;;;;;5.03;2.77;;;3.70;98.00;;;5.41;64.89;96439.91;5028853;28;20045;-52
2023/12/05 04:46:04;;;;;;;4.53;3.20;;;3.70;97.20;;;5.41;64.79;96439.91;5033517;28;20042;-54
2023/12/05 04:48:31;;;;;;;5.33;3.20;;;3.80;97.90;;;5.43;65.28;96433.50;5033897;28;20452;-55
2023/12/05 04:50:59;;;;;;;4.50;2.87;;;3.80;98.00;;;5.43;64.76;96440.56;5034726;28;20049;-54
2023/12/05 04:53:27;;;;;;;4.43;2.93;;;3.80;96.70;;;5.45;65.29;96441.28;5034715;28;20117;-53
2023/12/05 04:55:54;;;;;;;4.90;3.07;;;3.80;97.00;;;5.45;65.52;96447.38;5033802;28;20037;-52
2023/12/05 04:58:22;;;;;;;5.47;3.50;;;3.70;96.10;;;5.42;64.80;96437.13;5033913;28;20048;-53
2023/12/05 05:00:49;;;;;;;5.37;2.90;;;3.70;96.40;;;5.42;64.55;96436.31;5033722;28;20516;-51
2023/12/05 05:03:19;;;;;;;5.03;3.10;;;3.60;96.10;;;5.41;64.44;96442.56;5033784;28;20060;-52
2023/12/05 05:05:47;;;;;;;4.27;2.87;;;3.70;95.80;;;5.38;64.87;96437.59;5033629;28;20065;-54
2023/12/05 05:08:14;;;;;;;3.47;2.70;;;3.60;96.10;;;5.37;64.71;96433.28;5033778;28;20053;-52
2023/12/05 05:10:42;;;;;;;5.77;3.13;;;3.60;95.60;;;5.35;64.39;96438.75;5033215;28;20045;-52
2023/12/05 05:13:10;;;;;;;8.07;3.60;;;3.60;95.50;;;5.35;64.70;96438.75;5033781;28;20507;-51
2023/12/05 05:15:37;;;;;;;5.30;3.43;;;3.60;95.50;;;5.34;64.62;96434.44;5033394;28;20041;-51
2023/12/05 05:18:05;;;;;;;5.97;3.13;;;3.50;95.20;;;5.29;63.92;96432.28;5034105;28;20037;-54
2023/12/05 05:20:33;;;;;;;5.43;3.17;;;3.50;95.60;;;5.25;64.10;96432.75;5033323;28;20045;-52
2023/12/05 05:23:00;;;;;;;6.33;3.90;;;3.40;96.00;;;5.25;64.45;96430.97;5033802;28;20045;-54
2023/12/05 05:25:28;;;;;;;5.43;3.27;;;3.40;95.70;;;5.18;63.98;96419.38;5033321;28;20056;-54
2023/12/05 05:27:56;;;;;;;5.03;3.43;;;3.40;96.20;;;5.16;64.61;96423.97;5025360;28;20057;-51
2023/12/05 05:30:24;;;;;;;5.67;3.50;;;3.40;96.70;;;5.16;64.74;96426.63;5033175;28;20056;-55
2023/12/05 05:32:51;;;;;;;7.63;4.07;;;3.40;96.50;;;5.15;64.55;96422.31;5033209;28;20651;-51
2023/12/05 05:35:19;;;;;;;7.97;3.83;;;3.40;96.20;;;5.06;64.51;96432.00;5033486;28;20053;-52
2023/12/05 05:37:50;;;;;;;6.80;4.00;;;3.40;96.70;;;5.09;65.14;96431.69;5031692;28;20060;-52
2023/12/05 05:40:18;;;;;;;7.23;3.77;;;3.40;96.80;;;5.09;65.36;96439.59;5033058;28;20053;-54
2023/12/05 05:42:46;;;;;;;6.10;3.17;;;3.40;97.00;;;5.13;64.89;96433.00;5032708;28;20640;-54
2023/12/05 05:45:14;;;;;;;6.40;3.57;;;3.50;97.30;;;5.15;65.68;96442.59;5032667;28;20061;-52
2023/12/05 05:47:41;;;;;;;28.63;11.40;;;3.50;97.10;;;5.19;65.11;96436.84;5032002;28;20045;-55
2023/12/05 05:50:11;;;;;;;8.27;3.67;;;3.50;96.90;;;5.15;65.16;96443.41;5032606;28;20041;-52
2023/12/05 05:52:41;;;;;;;10.43;4.40;;;3.50;97.20;;;5.19;65.37;96438.66;5032809;28;20069;-54
2023/12/05 05:55:09;;;;;;;10.60;4.33;;;3.50;97.10;;;5.20;65.22;96440.31;5032487;28;20072;-52
2023/12/05 05:57:36;;;;;;;11.87;5.10;;;3.50;97.00;;;5.24;64.91;96437.22;5031565;28;20046;-55
2023/12/05 06:00:05;;;;;;;6.70;3.63;;;3.60;96.60;;;5.22;65.26;96431.25;5031237;28;20045;-55
2023/12/05 06:02:33;;;;;;;9.83;3.90;;;3.60;97.10;;;5.25;65.35;96430.13;5032633;28;20421;-55
2023/12/05 06:05:02;;;;;;;10.63;3.63;;;3.60;97.10;;;5.26;64.81;96422.03;5032423;28;20496;-54
2023/12/05 06:07:31;;;;;;;12.37;5.73;;;3.60;97.00;;;5.22;65.89;96428.63;5032970;28;20056;-51
2023/12/05 06:09:59;;;;;;;7.03;3.27;;;3.60;97.20;;;5.23;65.02;96427.63;5006556;28;20056;-55
2023/12/05 06:12:26;;;;;;;7.10;3.70;;;3.60;97.10;;;5.27;65.25;96430.78;5032504;28;20501;-55
2023/12/05 06:14:54;;;;;;;17.70;6.33;;;3.70;97.20;;;5.31;64.98;96446.16;5032049;28;20050;-52
2023/12/05 06:17:22;;;;;;;5.40;2.73;;;3.70;96.80;;;5.32;65.04;96444.34;5032100;28;20064;-54
2023/12/05 06:19:50;;;;;;;3.87;2.20;;;3.70;96.60;;;5.31;65.55;96442.66;5032124;28;20390;-54
2023/12/05 06:22:17;;;;;;;24.37;11.03;;;3.70;96.60;;;5.29;65.54;96437.56;5031674;28;20049;-53
2023/12/05 06:24:45;;;;;;;10.53;4.50;;;3.80;96.60;;;5.32;65.00;96444.34;5030293;28;20060;-56
2023/12/05 06:27:13;;;;;;;19.63;9.43;;;3.80;96.90;;;5.32;65.54;96447.78;5032166;28;20052;-55
2023/12/05 06:29:41;;;;;;;9.03;4.60;;;3.80;96.60;;;5.37;65.14;96447.34;5032242;28;20045;-54
2023/12/05 06:32:08;;;;;;;5.07;3.57;;;3.80;96.10;;;5.33;65.45;96446.81;5031041;28;20056;-55
2023/12/05 06:34:36;;;;;;;5.27;2.93;;;3.70;96.20;;;5.35;65.08;96441.41;5032154;28;20052;-53
2023/12/05 06:37:04;;;;;;;4.33;2.07;;;3.70;96.20;;;5.36;65.06;96444.84;5030443;28;20049;-55
2023/12/05 06:39:31;;;;;;;5.37;2.93;;;3.70;96.00;;;5.36;65.70;96453.59;5032060;28;20049;-53
2023/12/05 06:41:59;;;;;;;9.63;4.57;;;3.70;96.00;;;5.31;65.16;96454.06;5032032;28;20390;-56
2023/12/05 06:44:27;;;;;;;4.90;2.57;;;3.70;96.30;;;5.32;64.89;96457.53;5031979;28;20048;-57
2023/12/05 06:46:54;;;;;;;5.33;2.20;;;3.70;96.20;;;5.32;65.41;96460.16;5030673;28;20046;-50
2023/12/05 06:49:22;;;;;;;3.07;1.70;;;3.80;95.90;;;5.34;65.00;96458.19;5032042;28;20049;-51
2023/12/05 06:51:57;;;;;;;4.97;2.53;;;3.80;96.00;;;5.32;65.13;96478.66;5031216;28;20045;-53
2023/12/05 06:54:25;;;;;;;4.83;1.93;;;3.80;96.00;;;5.28;65.42;96480.78;5031598;28;20053;-52
2023/12/05 06:56:53;;;;;;;5.90;2.50;;;3.70;95.90;;;5.32;65.55;96473.38;5031222;28;20045;-53
2023/12/05 06:59:20;;;;;;;3.77;1.83;;;3.70;96.00;;;5.32;65.62;96482.09;5031801;28;20046;-52
2023/12/05 07:01:48;;;;;;;3.50;1.80;;;3.80;95.70;;;5.33;65.48;96483.78;5031203;28;20045;-52
2023/12/05 07:04:16;;;;;;;5.37;2.40;;;3.80;95.50;;;5.34;65.24;96492.50;5031563;28;20600;-51
2023/12/05 07:06:43;;;;;;;3.37;1.90;;;3.80;95.50;;;5.37;64.76;96480.81;5031085;28;20046;-54
2023/12/05 07:09:11;;;;;;;4.30;2.00;;;3.80;95.50;;;5.42;65.16;96491.72;5031639;28;20041;-53
2023/12/05 07:11:39;;;;;;;4.03;1.90;;;3.80;95.20;;;5.46;65.35;96488.59;5030987;28;20046;-53
2023/12/05 07:14:08;;;;;;;2.97;2.07;;;3.90;94.90;;;5.46;65.20;96499.16;5031249;28;20037;-52
2023/12/05 07:16:36;;;;;;;3.83;1.80;;;3.90;94.60;;;5.45;65.03;96502.00;5030880;28;20053;-53
2023/12/05 07:19:04;;;;;;;5.17;1.93;;;3.90;94.40;;;5.43;65.08;96503.94;5031729;28;20048;-50
2023/12/05 07:21:31;;;;;;;4.90;2.00;;;3.90;94.40;;;5.41;65.34;96508.53;5031337;28;20053;-52
2023/12/05 07:23:59;;;;;;;4.13;2.03;;;3.90;93.90;;;5.36;65.12;96514.31;5031062;28;20100;-51
2023/12/05 07:26:28;;;;;;;4.20;2.00;;;3.90;94.50;;;5.38;65.88;96525.53;5030610;28;20049;-50
2023/12/05 07:28:55;;;;;;;3.47;2.33;;;3.90;94.40;;;5.44;65.27;96530.19;5031316;28;20049;-55
2023/12/05 07:31:24;;;;;;;3.77;2.07;;;3.90;94.10;;;5.50;64.68;96529.53;5031158;28;20694;-52
2023/12/05 07:33:51;;;;;;;3.27;2.00;;;3.90;93.40;;;5.53;65.11;96525.78;5029226;28;20045;-54
2023/12/05 07:36:19;;;;;;;4.20;1.87;;;3.90;93.90;;;5.61;65.12;96533.75;5030585;28;20045;-52
2023/12/05 07:38:47;;;;;;;4.83;1.90;;;4.00;93.90;;;5.67;65.00;96532.28;5031007;28;20406;-53
2023/12/05 07:41:24;;;;;;;4.13;1.90;;;4.10;93.60;;;5.70;65.47;96531.97;5030899;28;20038;-52
2023/12/05 07:43:52;;;;;;;4.67;1.77;;;4.20;92.80;;;5.76;64.45;96533.97;5026133;28;20044;-51
2023/12/05 07:46:21;;;;;;;3.63;1.97;;;4.20;92.80;;;5.80;65.22;96534.50;5030272;28;20067;-53
2023/12/05 07:48:48;;;;;;;6.60;2.07;;;4.40;92.20;;;5.84;64.46;96538.47;5030525;28;20057;-49
2023/12/05 07:51:16;;;;;;;2.57;1.83;;;4.40;91.70;;;5.89;64.43;96533.53;5030777;28;20416;-53
2023/12/05 07:53:50;;;;;;;8.93;1.77;;;4.40;91.70;;;5.93;64.76;96537.50;5030672;28;20049;-54
2023/12/05 07:56:18;;;;;;;3.03;1.83;;;4.50;91.40;;;6.00;64.54;96538.56;5030535;28;20057;-54
2023/12/05 07:58:45;;;;;;;2.83;1.60;;;4.50;91.40;;;6.06;64.23;96537.91;5030838;28;20043;-55
2023/12/05 08:01:13;;;;;;;4.07;1.93;;;4.60;90.60;;;6.11;64.77;96540.91;5030755;28;20049;-56
2023/12/05 08:03:41;;;;;;;4.90;1.70;;;4.60;90.40;;;6.15;63.98;96545.91;5030520;28;20037;-52
2023/12/05 08:06:09;;;;;;;5.57;1.70;;;4.60;90.10;;;6.13;64.25;96547.84;5030600;28;20064;-53
2023/12/05 08:08:36;;;;;;;3.10;1.60;;;4.60;90.10;;;6.16;63.53;96540.44;5030866;28;20395;-55
2023/12/05 08:11:06;;;;;;;3.73;1.40;;;4.60;89.50;;;6.17;63.89;96543.91;5030691;28;22352;-55
2023/12/05 08:13:33;;;;;;;2.27;1.40;;;4.70;90.20;;;6.22;64.36;96547.75;5030501;28;20041;-55
2023/12/05 08:16:01;;;;;;;5.07;1.63;;;4.70;89.40;;;6.26;63.77;96546.41;5030127;28;20046;-55
2023/12/05 08:18:28;;;;;;;5.03;2.43;;;4.80;89.30;;;6.32;63.53;96542.31;5029771;28;20060;-55
2023/12/05 08:20:56;;;;;;;2.70;1.90;;;4.80;89.40;;;6.34;63.70;96550.06;5030893;28;20046;-55
2023/12/05 08:23:24;;;;;;;3.87;1.50;;;4.80;89.10;;;6.35;63.65;96547.25;5031156;28;20050;-56
2023/12/05 08:25:51;;;;;;;3.97;1.90;;;4.80;88.00;;;6.37;63.37;96557.69;5030543;28;20049;-54
2023/12/05 08:28:19;;;;;;;5.10;1.93;;;4.80;88.60;;;6.40;63.54;96560.00;5030562;28;20072;-53
2023/12/05 08:30:47;;;;;;;4.27;1.40;;;4.90;88.50;;;6.46;63.37;96557.53;5030265;28;20052;-54
2023/12/05 08:33:15;;;;;;;5.03;2.40;;;4.90;88.20;;;6.42;63.04;96555.38;5030396;28;20053;-54
2023/12/05 08:35:42;;;;;;;1.97;1.63;;;4.90;87.90;;;6.47;63.29;96558.34;5029586;28;20037;-52
2023/12/05 08:38:10;;;;;;;4.03;1.80;;;4.90;87.10;;;6.52;63.39;96552.59;5029093;28;20054;-56
2023/12/05 08:40:38;;;;;;;4.30;1.60;;;5.00;87.50;;;6.55;63.19;96553.06;5030235;28;20038;-54
2023/12/05 08:43:06;;;;;;;2.87;2.10;;;5.00;86.90;;;6.52;63.18;96553.41;5029975;28;20135;-54
2023/12/05 08:45:33;;;;;;;2.50;1.80;;;5.10;86.20;;;6.52;63.03;96557.88;5028679;28;20076;-54
2023/12/05 08:48:01;;;;;;;4.87;2.20;;;5.00;86.50;;;6.54;62.88;96555.91;5032862;28;20524;-55
2023/12/05 08:50:29;;;;;;;5.27;1.90;;;5.00;86.60;;;6.50;62.59;96582.66;5033716;28;20493;-55
2023/12/05 08:52:56;;;;;;;5.57;1.80;;;5.00;86.50;;;6.49;62.34;96561.66;5033980;28;20068;-56
2023/12/05 08:55:24;;;;;;;6.87;2.37;;;4.90;87.20;;;6.48;62.82;96568.78;5033690;28;20248;-56
2023/12/05 08:57:52;;;;;;;3.50;2.00;;;4.90;86.80;;;6.47;62.79;96563.63;5033686;28;20041;-53
2023/12/05 09:00:20;;;;;;;2.00;1.17;;;4.90;87.00;;;6.48;62.63;96567.97;5033836;28;20045;-54
2023/12/05 09:02:47;;;;;;;3.90;1.50;;;5.00;86.60;;;6.45;62.74;96565.63;5033703;28;20515;-54
2023/12/05 09:05:15;;;;;;;2.73;1.70;;;5.00;86.30;;;6.46;62.20;96568.09;5025234;28;20037;-52
2023/12/05 09:07:43;;;;;;;3.33;1.57;;;4.90;86.60;;;6.45;62.20;96562.97;5033541;28;20212;-56
2023/12/05 09:10:12;;;;;;;3.57;1.70;;;4.90;86.50;;;6.45;62.39;96570.91;5033516;28;20045;-54
2023/12/05 09:12:40;;;;;;;3.43;1.70;;;5.00;86.80;;;6.46;62.61;96580.50;5033558;28;20045;-54
2023/12/05 09:15:08;;;;;;;3.97;2.10;;;5.00;86.80;;;6.46;62.29;96575.22;5032076;28;20045;-53
2023/12/05 09:17:35;;;;;;;2.77;1.30;;;5.00;86.10;;;6.45;62.24;96576.19;5033246;28;20041;-56
2023/12/05 09:20:04;;;;;;;3.27;1.53;;;5.00;86.10;;;6.47;62.04;96571.56;5033148;28;20420;-56
2023/12/05 09:22:31;;;;;;;4.00;1.40;;;4.90;86.00;;;6.45;62.64;96590.25;5033392;28;20485;-55
2023/12/05 09:24:59;;;;;;;3.23;1.40;;;5.00;86.50;;;6.48;62.45;96589.94;5033016;28;20048;-56
2023/12/05 09:27:27;;;;;;;3.37;1.93;;;5.00;86.30;;;6.50;62.34;96587.94;5033472;28;20044;-55
2023/12/05 09:29:54;;;;;;;3.13;2.30;;;5.00;86.20;;;6.49;62.43;96601.31;5033123;28;20489;-56
2023/12/05 09:32:22;;;;;;;2.13;1.43;;;5.10;85.90;;;6.55;62.30;96595.38;5033019;28;20080;-57
2023/12/05 09:34:50;;;;;;;2.60;1.40;;;5.10;85.70;;;6.57;62.43;96597.88;5032855;28;20049;-56
2023/12/05 09:37:17;;;;;;;3.90;1.57;;;5.00;86.50;;;6.61;62.49;96593.91;5032989;28;20044;-56
2023/12/05 09:39:45;;;;;;;2.27;1.40;;;5.10;86.30;;;6.63;62.12;96600.72;5033060;28;20049;-52
2023/12/05 09:42:13;;;;;;;3.33;1.90;;;5.10;86.30;;;6.65;62.15;96598.75;5032945;28;20160;-56
2023/12/05 09:44:47;;;;;;;3.30;1.63;;;5.10;86.80;;;6.65;62.17;96601.38;5032003;28;20393;-55
2023/12/05 09:47:20;;;;;;;5.43;1.97;;;5.10;85.90;;;6.62;62.46;96595.59;5030726;28;20413;-56
2023/12/05 09:49:48;;;;;;;3.20;1.95;;;5.10;86.10;;;6.62;62.38;96592.94;5015710;28;20052;-54
2023/12/05 09:52:18;;;;;;;3.30;1.90;;;5.10;85.90;;;6.60;61.75;96592.28;5032849;28;20621;-55
2023/12/05 09:54:47;;;;;;;3.03;1.63;;;5.10;85.60;;;6.56;62.47;96586.47;5032854;28;20061;-55
2023/12/05 09:57:15;;;;;;;4.80;3.83;;;5.00;85.70;;;6.59;62.35;96588.81;5031109;28;20056;-56
2023/12/05 09:59:43;;;;;;;3.60;1.50;;;5.00;86.10;;;6.60;61.71;96586.97;5032695;28;20528;-56
2023/12/05 10:02:13;;;;;;;2.77;1.73;;;5.00;85.80;;;6.63;62.17;96581.34;5032522;28;20488;-55
2023/12/05 10:04:44;;;;;;;4.23;1.80;;;5.00;85.90;;;6.64;62.09;96575.09;5031357;28;20056;-56
2023/12/05 10:07:13;;;;;;;3.70;2.10;;;5.00;85.80;;;6.69;61.78;96580.72;5032387;28;20056;-55
2023/12/05 10:09:43;;;;;;;4.03;1.70;;;5.10;85.70;;;6.69;61.94;96575.44;5032439;28;20049;-56
2023/12/05 10:12:11;;;;;;;2.93;1.87;;;5.10;85.00;;;6.70;61.62;96580.53;5031350;28;20536;-55
2023/12/05 10:14:40;;;;;;;3.73;1.77;;;5.10;85.10;;;6.74;61.86;96585.53;5032519;28;20044;-55
2023/12/05 10:17:08;;;;;;;2.57;1.87;;;5.10;85.30;;;6.73;61.34;96582.06;5015077;28;20049;-56
2023/12/05 10:19:35;;;;;;;3.63;1.80;;;5.10;85.10;;;6.77;61.84;96593.13;5031598;28;20068;-56
2023/12/05 10:22:04;;;;;;;5.73;1.97;;;5.10;84.80;;;6.74;61.59;96585.53;5031261;28;20038;-55
2023/12/05 10:24:43;;;;;;;5.57;1.70;;;5.10;84.50;;;6.74;61.78;96588.97;5031053;28;20523;-56
2023/12/05 10:27:11;;;;;;;7.67;2.03;;;5.20;84.60;;;6.76;61.92;96584.34;5030553;28;20424;-55
2023/12/05 10:29:41;;;;;;;3.00;2.10;;;5.20;84.80;;;6.77;61.71;96582.56;5031880;28;20052;-56
2023/12/05 10:32:12;;;;;;;3.97;1.70;;;5.20;84.50;;;6.83;61.66;96581.91;5032053;28;20101;-54
2023/12/05 10:34:52;;;;;;;3.90;1.60;;;5.20;84.90;;;6.82;61.53;96577.59;5031954;28;20048;-55
2023/12/05 10:37:25;;;;;;;2.90;1.70;;;5.20;85.10;;;6.83;61.62;96566.84;5031795;28;20056;-55